createdAt,value
2024-02-19T00:01:47.129Z,13.82
2024-02-19T00:04:49.354Z,15.20
2024-02-19T00:07:52.476Z,14.68
2024-02-19T00:10:54.640Z,14.98
2024-02-19T00:13:58.070Z,15.95
2024-02-19T00:17:00.557Z,15.43
2024-02-19T00:20:04.222Z,16.08
2024-02-19T00:23:06.344Z,15.48
2024-02-19T00:26:08.499Z,15.48
2024-02-19T00:29:10.881Z,16.15
2024-02-19T00:32:13.011Z,13.43
2024-02-19T00:35:15.069Z,15.13
2024-02-19T00:38:17.091Z,15.60
2024-02-19T00:41:20.918Z,15.23
2024-02-19T00:44:23.782Z,15.95
2024-02-19T00:47:25.848Z,14.38
2024-02-19T00:50:28.966Z,14.93
2024-02-19T00:53:32.081Z,13.60
2024-02-19T00:56:35.450Z,14.38
2024-02-19T00:59:37.986Z,15.43
2024-02-19T01:02:42.213Z,13.90
2024-02-19T01:05:44.769Z,14.60
2024-02-19T01:08:48.069Z,14.77
2024-02-19T01:11:57.669Z,13.73
2024-02-19T01:14:59.751Z,13.30
2024-02-19T01:18:02.487Z,13.50
2024-02-19T01:21:04.939Z,13.63
2024-02-19T01:24:09.407Z,13.60
2024-02-19T01:27:11.689Z,14.40
2024-02-19T01:30:15.255Z,14.90
2024-02-19T01:33:17.534Z,14.38
2024-02-19T01:36:20.550Z,14.85
2024-02-19T01:39:23.480Z,13.85
2024-02-19T01:42:25.549Z,13.82
2024-02-19T01:45:27.667Z,14.30
2024-02-19T01:48:29.861Z,14.77
2024-02-19T01:51:34.100Z,13.90
2024-02-19T01:54:37.430Z,13.40
2024-02-19T01:57:41.238Z,14.23
2024-02-19T02:00:43.447Z,13.90
2024-02-19T02:03:48.261Z,13.38
2024-02-19T02:06:50.550Z,13.20
2024-02-19T02:09:52.671Z,12.18
2024-02-19T02:12:55.167Z,13.35
2024-02-19T02:15:57.260Z,12.30
2024-02-19T02:19:00.097Z,12.80
2024-02-19T02:22:02.290Z,12.38
2024-02-19T02:25:06.032Z,14.68
2024-02-19T02:28:08.188Z,14.05
2024-02-19T02:31:10.327Z,14.25
2024-02-19T02:34:12.660Z,14.25
2024-02-19T02:37:15.935Z,20.20
2024-02-19T02:40:18.574Z,15.70
2024-02-19T02:43:22.088Z,14.05
2024-02-19T02:46:24.247Z,16.45
2024-02-19T02:49:26.377Z,18.23
2024-02-19T02:52:28.484Z,17.05
2024-02-19T02:55:31.046Z,16.30
2024-02-19T02:58:34.808Z,18.80
2024-02-19T03:01:37.391Z,17.05
2024-02-19T03:04:39.848Z,18.92
2024-02-19T03:07:41.995Z,18.42
2024-02-19T03:10:46.030Z,14.93
2024-02-19T03:13:50.488Z,13.65
2024-02-19T03:16:52.540Z,15.77
2024-02-19T03:19:54.900Z,15.85
2024-02-19T03:22:57.135Z,17.23
2024-02-19T03:25:59.397Z,13.52
2024-02-19T03:29:02.259Z,14.23
2024-02-19T03:32:05.043Z,14.23
2024-02-19T03:35:07.720Z,14.85
2024-02-19T03:38:11.056Z,14.68
2024-02-19T03:41:13.430Z,14.52
2024-02-19T03:44:17.453Z,16.17
2024-02-19T03:47:19.473Z,15.95
2024-02-19T03:50:24.815Z,13.43
2024-02-19T03:53:27.719Z,15.27
2024-02-19T03:56:29.643Z,16.95
2024-02-19T03:59:33.276Z,17.15
2024-02-19T04:02:37.629Z,9.02
2024-02-19T04:05:39.638Z,15.98
2024-02-19T04:08:42.427Z,16.63
2024-02-19T04:11:45.951Z,22.00
2024-02-19T04:14:48.279Z,18.88
2024-02-19T04:17:51.716Z,18.45
2024-02-19T04:20:53.875Z,17.45
2024-02-19T04:23:57.025Z,21.02
2024-02-19T04:26:59.711Z,19.08
2024-02-19T04:30:02.608Z,18.20
2024-02-19T04:33:06.349Z,19.65
2024-02-19T04:36:08.585Z,22.05
2024-02-19T04:39:12.204Z,22.52
2024-02-19T04:42:15.496Z,25.80
2024-02-19T04:45:19.157Z,33.08
2024-02-19T04:48:24.854Z,36.90
2024-02-19T04:51:27.579Z,25.63
2024-02-19T04:54:30.001Z,23.73
2024-02-19T04:57:32.310Z,22.13
2024-02-19T05:00:35.449Z,25.00
2024-02-19T05:03:37.642Z,26.02
2024-02-19T05:06:41.702Z,23.38
2024-02-19T05:09:44.821Z,25.67
2024-02-19T05:12:47.640Z,26.70
2024-02-19T05:15:49.719Z,23.75
2024-02-19T05:18:51.875Z,23.50
2024-02-19T05:21:55.467Z,27.15
2024-02-19T05:24:57.861Z,20.92
2024-02-19T05:28:00.215Z,24.95
2024-02-19T05:31:03.538Z,22.02
2024-02-19T05:34:07.115Z,22.13
2024-02-19T05:37:09.251Z,23.38
2024-02-19T05:40:14.457Z,21.38
2024-02-19T05:43:16.609Z,19.88
2024-02-19T05:46:19.883Z,19.10
2024-02-19T05:49:22.338Z,20.38
2024-02-19T05:52:24.511Z,22.08
2024-02-19T05:55:28.442Z,21.00
2024-02-19T05:58:32.546Z,19.55
2024-02-19T06:01:34.716Z,19.52
2024-02-19T06:04:38.723Z,21.08
2024-02-19T06:07:40.976Z,18.27
2024-02-19T06:10:47.066Z,19.73
2024-02-19T06:16:51.725Z,24.35
2024-02-19T06:19:53.725Z,30.02
2024-02-19T06:22:56.170Z,41.25
2024-02-19T06:26:04.478Z,30.65
2024-02-19T06:29:09.832Z,30.13
2024-02-19T06:32:14.074Z,33.78
2024-02-19T06:35:16.713Z,35.10
2024-02-19T06:38:18.875Z,31.50
2024-02-19T06:41:23.063Z,25.63
2024-02-19T06:44:25.945Z,26.17
2024-02-19T06:47:28.007Z,23.30
2024-02-19T06:50:30.952Z,24.98
2024-02-19T06:53:33.005Z,22.27
2024-02-19T06:56:36.178Z,21.42
2024-02-19T06:59:38.492Z,21.38
2024-02-19T07:02:40.893Z,20.90
2024-02-19T07:05:45.759Z,19.15
2024-02-19T07:08:48.692Z,20.10
2024-02-19T07:11:50.782Z,23.15
2024-02-19T07:14:52.991Z,24.50
2024-02-19T07:17:55.197Z,21.55
2024-02-19T07:20:58.438Z,20.65
2024-02-19T07:24:00.385Z,18.90
2024-02-19T07:27:02.442Z,21.73
2024-02-19T07:30:04.867Z,21.27
2024-02-19T07:33:07.102Z,21.95
2024-02-19T07:36:10.287Z,26.50
2024-02-19T07:39:13.323Z,20.95
2024-02-19T07:42:16.004Z,23.98
2024-02-19T07:45:19.055Z,23.58
2024-02-19T07:48:21.327Z,19.63
2024-02-19T07:51:23.774Z,20.27
2024-02-19T07:54:27.272Z,17.05
2024-02-19T07:57:30.655Z,19.52
2024-02-19T08:00:33.115Z,19.23
2024-02-19T08:03:35.523Z,20.13
2024-02-19T08:06:37.653Z,20.10
2024-02-19T08:09:39.815Z,17.23
2024-02-19T08:12:43.724Z,17.48
2024-02-19T08:15:46.563Z,24.25
2024-02-19T08:18:48.915Z,21.00
2024-02-19T08:21:51.070Z,23.95
2024-02-19T08:24:53.470Z,22.98
2024-02-19T08:27:55.856Z,21.92
2024-02-19T08:30:58.587Z,22.75
2024-02-19T08:34:02.180Z,29.15
2024-02-19T08:37:07.360Z,25.52
2024-02-19T08:40:10.053Z,27.42
2024-02-19T08:43:13.103Z,28.23
2024-02-19T08:46:16.595Z,21.98
2024-02-19T08:49:19.834Z,22.60
2024-02-19T08:52:23.212Z,21.23
2024-02-19T08:55:25.440Z,19.98
2024-02-19T08:58:32.769Z,21.08
2024-02-19T09:01:36.917Z,18.45
2024-02-19T09:04:39.496Z,19.05
2024-02-19T09:07:42.979Z,18.33
2024-02-19T09:10:45.813Z,17.10
2024-02-19T09:13:50.509Z,15.23
2024-02-19T09:16:53.567Z,13.65
2024-02-19T09:19:55.954Z,12.88
2024-02-19T09:22:58.455Z,14.88
2024-02-19T09:26:02.602Z,15.95
2024-02-19T09:29:05.019Z,13.43
2024-02-19T09:32:07.838Z,11.45
2024-02-19T09:35:10.212Z,12.15
2024-02-19T09:38:12.452Z,13.70
2024-02-19T09:41:14.596Z,12.88
2024-02-19T09:44:17.000Z,11.32
2024-02-19T09:47:20.769Z,12.73
2024-02-19T09:50:24.185Z,12.07
2024-02-19T09:53:30.713Z,15.57
2024-02-19T09:56:34.699Z,15.82
2024-02-19T09:59:38.813Z,15.27
2024-02-19T10:02:41.439Z,18.05
2024-02-19T10:05:43.661Z,12.38
2024-02-19T10:08:46.680Z,13.93
2024-02-19T10:11:56.901Z,16.38
2024-02-19T10:14:59.457Z,12.77
2024-02-19T10:18:18.915Z,11.35
2024-02-19T10:21:21.367Z,13.63
2024-02-19T10:24:24.660Z,13.73
2024-02-19T10:27:30.408Z,11.93
2024-02-19T10:30:32.446Z,12.98
2024-02-19T10:33:37.560Z,10.70
2024-02-19T10:36:39.791Z,11.65
2024-02-19T10:39:42.044Z,10.13
2024-02-19T10:42:44.782Z,10.35
2024-02-19T10:45:48.541Z,10.80
2024-02-19T10:48:54.347Z,13.55
2024-02-19T10:51:57.717Z,10.13
2024-02-19T10:55:09.757Z,10.43
2024-02-19T10:58:17.360Z,9.77
2024-02-19T11:01:20.863Z,7.97
2024-02-19T11:04:27.221Z,9.63
2024-02-19T11:07:34.007Z,10.82
2024-02-19T11:10:42.086Z,8.55
2024-02-19T11:13:48.167Z,9.63
2024-02-19T11:16:51.417Z,10.55
2024-02-19T11:19:55.083Z,9.52
2024-02-19T11:22:57.950Z,9.43
2024-02-19T11:26:02.078Z,9.77
2024-02-19T11:29:04.298Z,9.68
2024-02-19T11:32:07.292Z,8.82
2024-02-19T11:35:13.672Z,9.65
2024-02-19T11:38:15.968Z,8.85
2024-02-19T11:41:18.334Z,9.43
2024-02-19T11:44:20.441Z,8.75
2024-02-19T11:47:22.820Z,10.25
2024-02-19T11:50:31.954Z,9.05
2024-02-19T11:53:34.043Z,10.40
2024-02-19T11:57:06.594Z,9.38
2024-02-19T12:00:10.853Z,9.85
2024-02-19T12:03:14.910Z,8.63
2024-02-19T12:06:17.099Z,9.48
2024-02-19T12:09:20.776Z,9.32
2024-02-19T12:12:22.788Z,9.75
2024-02-19T12:15:25.458Z,8.27
2024-02-19T12:18:28.574Z,7.97
2024-02-19T12:21:30.776Z,7.70
2024-02-19T12:24:33.273Z,7.45
2024-02-19T12:27:35.506Z,9.02
2024-02-19T12:30:37.551Z,8.82
2024-02-19T12:33:39.725Z,9.07
2024-02-19T12:36:42.181Z,8.40
2024-02-19T12:39:46.794Z,9.23
2024-02-19T12:42:49.236Z,9.75
2024-02-19T12:45:51.457Z,8.20
2024-02-19T12:48:54.192Z,8.80
2024-02-19T12:51:58.966Z,8.32
2024-02-19T12:55:01.228Z,8.30
2024-02-19T12:58:03.640Z,9.30
2024-02-19T13:01:12.764Z,7.78
2024-02-19T13:04:26.247Z,8.82
2024-02-19T13:07:31.633Z,9.40
2024-02-19T13:10:34.890Z,7.53
2024-02-19T13:13:37.545Z,9.77
2024-02-19T13:16:39.807Z,8.90
2024-02-19T13:19:42.351Z,8.63
2024-02-19T13:22:44.913Z,10.20
2024-02-19T13:25:47.105Z,9.55
2024-02-19T13:28:49.286Z,11.18
2024-02-19T13:31:51.266Z,9.70
2024-02-19T13:34:54.489Z,9.13
2024-02-19T13:37:58.127Z,8.88
2024-02-19T13:41:07.243Z,11.23
2024-02-19T13:44:09.491Z,12.75
2024-02-19T13:47:12.429Z,8.55
2024-02-19T13:50:16.096Z,9.82
2024-02-19T13:53:19.358Z,10.98
2024-02-19T13:56:21.514Z,14.52
2024-02-19T13:59:25.287Z,10.80
2024-02-19T14:02:31.448Z,10.60
2024-02-19T14:05:36.738Z,9.52
2024-02-19T14:08:40.568Z,9.52
2024-02-19T14:11:43.889Z,9.57
2024-02-19T14:14:47.011Z,10.45
2024-02-19T14:17:49.100Z,9.82
2024-02-19T14:20:52.529Z,9.35
2024-02-19T14:23:55.647Z,9.45
2024-02-19T14:26:58.362Z,11.52
2024-02-19T14:30:00.908Z,11.02
2024-02-19T14:33:03.814Z,8.57
2024-02-19T14:36:06.567Z,13.50
2024-02-19T14:39:11.129Z,11.75
2024-02-19T14:42:14.307Z,11.32
2024-02-19T14:45:17.088Z,14.30
2024-02-19T14:48:20.134Z,13.23
2024-02-19T14:51:25.899Z,12.68
2024-02-19T14:54:29.828Z,15.02
2024-02-19T14:57:32.319Z,10.50
2024-02-19T15:00:36.624Z,12.02
2024-02-19T15:03:39.125Z,12.40
2024-02-19T15:06:42.704Z,12.80
2024-02-19T15:09:45.554Z,11.80
2024-02-19T15:12:47.724Z,16.63
2024-02-19T15:15:50.296Z,12.70
2024-02-19T15:18:52.514Z,12.18
2024-02-19T15:21:55.659Z,10.60
2024-02-19T15:24:58.053Z,9.02
2024-02-19T15:28:01.794Z,10.48
2024-02-19T15:31:05.944Z,12.68
2024-02-19T15:34:08.672Z,13.95
2024-02-19T15:37:13.513Z,12.35
2024-02-19T15:40:16.122Z,11.13
2024-02-19T15:43:18.327Z,18.75
2024-02-19T15:46:23.742Z,15.48
2024-02-19T15:49:26.230Z,12.65
2024-02-19T15:52:29.416Z,12.23
2024-02-19T15:55:32.960Z,14.65
2024-02-19T15:58:36.562Z,12.40
2024-02-19T16:01:38.821Z,13.27
2024-02-19T16:04:41.229Z,12.05
2024-02-19T16:07:44.084Z,12.93
2024-02-19T16:10:47.325Z,12.07
2024-02-19T16:13:51.355Z,13.90
2024-02-19T16:16:54.505Z,13.82
2024-02-19T16:19:56.579Z,11.63
2024-02-19T16:22:58.753Z,11.77
2024-02-19T16:26:03.198Z,13.18
2024-02-19T16:29:05.320Z,12.32
2024-02-19T16:32:09.321Z,11.27
2024-02-19T16:35:12.611Z,11.43
2024-02-19T16:38:16.009Z,12.52
2024-02-19T16:41:19.203Z,10.73
2024-02-19T16:44:21.272Z,11.65
2024-02-19T16:47:23.912Z,8.88
2024-02-19T16:50:26.312Z,12.05
2024-02-19T16:53:28.347Z,9.82
2024-02-19T16:56:31.113Z,10.23
2024-02-19T16:59:33.781Z,10.10
2024-02-19T17:02:37.076Z,12.45
2024-02-19T17:05:41.274Z,13.73
2024-02-19T17:08:45.905Z,16.58
2024-02-19T17:11:48.175Z,15.65
2024-02-19T17:14:51.441Z,14.10
2024-02-19T17:17:57.572Z,16.08
2024-02-19T17:21:00.081Z,14.88
2024-02-19T17:24:03.303Z,15.70
2024-02-19T17:27:05.621Z,14.32
2024-02-19T17:30:10.588Z,16.98
2024-02-19T17:33:12.657Z,16.10
2024-02-19T17:36:15.444Z,20.30
2024-02-19T17:39:19.957Z,15.82
2024-02-19T17:42:24.344Z,13.18
2024-02-19T17:45:26.855Z,12.35
2024-02-19T17:48:29.202Z,13.00
2024-02-19T17:51:33.300Z,12.27
2024-02-19T17:54:35.978Z,11.98
2024-02-19T17:57:38.343Z,13.00
2024-02-19T18:00:43.985Z,14.63
2024-02-19T18:03:46.672Z,14.73
2024-02-19T18:06:51.273Z,14.38
2024-02-19T18:09:53.434Z,14.35
2024-02-19T18:12:55.597Z,12.82
2024-02-19T18:15:57.948Z,15.95
2024-02-19T18:19:02.328Z,13.98
2024-02-19T18:22:06.319Z,12.50
2024-02-19T18:25:09.502Z,14.05
2024-02-19T18:28:11.818Z,12.90
2024-02-19T18:31:14.221Z,14.35
2024-02-19T18:34:16.873Z,12.43
2024-02-19T18:37:19.158Z,14.52
2024-02-19T18:40:21.299Z,13.05
2024-02-19T18:43:24.433Z,14.80
2024-02-19T18:46:27.192Z,12.98
2024-02-19T18:49:33.432Z,13.38
2024-02-19T18:52:36.638Z,11.95
2024-02-19T18:55:39.078Z,11.45
2024-02-19T18:58:41.320Z,12.23
2024-02-19T19:01:44.037Z,11.25
2024-02-19T19:04:48.057Z,12.48
2024-02-19T19:07:50.114Z,12.48
2024-02-19T19:10:54.333Z,11.93
2024-02-19T19:13:56.458Z,11.02
2024-02-19T19:17:00.057Z,10.75
2024-02-19T19:20:10.819Z,10.80
2024-02-19T19:23:13.431Z,11.57
2024-02-19T19:26:15.465Z,11.80
2024-02-19T19:29:17.777Z,9.85
2024-02-19T19:32:27.207Z,10.68
2024-02-19T19:35:30.587Z,10.20
2024-02-19T19:38:34.820Z,12.57
2024-02-19T19:41:38.593Z,11.55
2024-02-19T19:44:41.123Z,10.68
2024-02-19T19:47:43.328Z,9.32
2024-02-19T19:50:45.877Z,9.07
2024-02-19T19:53:47.941Z,11.68
2024-02-19T19:56:50.153Z,9.98
2024-02-19T19:59:52.469Z,9.68
2024-02-19T20:02:55.129Z,11.55
2024-02-19T20:05:57.783Z,9.88
2024-02-19T20:09:01.249Z,11.45
2024-02-19T20:12:04.554Z,10.45
2024-02-19T20:15:07.108Z,10.57
2024-02-19T20:18:10.443Z,11.20
2024-02-19T20:21:13.587Z,11.48
2024-02-19T20:24:15.664Z,12.55
2024-02-19T20:27:17.795Z,12.27
2024-02-19T20:30:20.197Z,11.45
2024-02-19T20:33:22.428Z,12.20
2024-02-19T20:36:24.808Z,13.30
2024-02-19T20:39:27.886Z,11.98
2024-02-19T20:42:29.915Z,12.65
2024-02-19T20:45:34.122Z,11.95
2024-02-19T20:48:36.142Z,12.40
2024-02-19T20:51:38.740Z,11.20
2024-02-19T20:54:40.875Z,10.90
2024-02-19T20:57:50.633Z,11.43
2024-02-19T21:00:57.127Z,11.07
2024-02-19T21:03:59.612Z,12.55
2024-02-19T21:07:04.372Z,11.70
2024-02-19T21:10:09.534Z,12.90
2024-02-19T21:13:11.733Z,12.30
2024-02-19T21:16:14.156Z,10.60
2024-02-19T21:19:18.712Z,12.35
2024-02-19T21:22:24.174Z,11.35
2024-02-19T21:25:26.517Z,11.95
2024-02-19T21:28:28.571Z,11.15
2024-02-19T21:31:31.552Z,11.88
2024-02-19T21:34:33.818Z,11.32
2024-02-19T21:37:41.035Z,11.73
2024-02-19T21:40:43.152Z,12.23
2024-02-19T21:43:45.599Z,10.75
2024-02-19T21:46:48.284Z,11.25
2024-02-19T21:49:50.330Z,11.27
2024-02-19T21:52:53.326Z,12.20
2024-02-19T21:55:55.331Z,11.20
2024-02-19T21:58:58.240Z,12.82
2024-02-19T22:02:01.182Z,11.80
2024-02-19T22:05:05.199Z,11.75
2024-02-19T22:08:08.039Z,11.65
2024-02-19T22:11:14.575Z,11.48
2024-02-19T22:14:17.440Z,10.80
2024-02-19T22:17:19.650Z,11.27
2024-02-19T22:20:22.282Z,11.27
2024-02-19T22:23:25.412Z,12.40
2024-02-19T22:26:28.428Z,14.07
2024-02-19T22:29:30.802Z,12.95
2024-02-19T22:32:33.492Z,14.07
2024-02-19T22:35:35.666Z,12.10
2024-02-19T22:38:37.903Z,14.10
2024-02-19T22:41:43.814Z,13.15
2024-02-19T22:44:46.783Z,14.05
2024-02-19T22:47:50.615Z,13.60
2024-02-19T22:50:54.434Z,14.07
2024-02-19T22:53:57.985Z,14.63
2024-02-19T22:57:02.002Z,13.40
2024-02-19T23:00:17.226Z,14.88
2024-02-19T23:03:20.350Z,14.18
2024-02-19T23:06:22.456Z,15.18
2024-02-19T23:09:25.303Z,15.65
2024-02-19T23:12:29.069Z,14.15
2024-02-19T23:15:31.671Z,13.00
2024-02-19T23:18:33.845Z,14.55
2024-02-19T23:21:37.701Z,14.13
2024-02-19T23:24:39.795Z,13.05
2024-02-19T23:27:44.155Z,13.38
2024-02-19T23:30:46.352Z,12.13
2024-02-19T23:33:49.851Z,14.23
2024-02-19T23:36:51.963Z,13.95
2024-02-19T23:39:56.374Z,13.10
2024-02-19T23:42:58.805Z,11.52
2024-02-19T23:46:00.918Z,11.90
2024-02-19T23:49:03.032Z,11.85
2024-02-19T23:52:05.425Z,12.55
2024-02-19T23:55:10.362Z,13.93
2024-02-19T23:58:12.796Z,12.90
